Time;durP1;ratioP1;P1;durP2;ratioP2;P2;SDS_P1;SDS_P2;PMS_P1;PMS_P2;Temp;Humidity;BMP_temperature;BMP_pressure;BME280_temperature;BME280_humidity;BME280_pressure;Samples;Min_cycle;Max_cycle;Signal;HPM_P1;HPM_P2
2023/01/28 00:01:11;;;;;;;12.07;9.77;;;2.20;99.90;;;;;;5093232;28;20087;-38
2023/01/28 00:03:38;;;;;;;12.65;9.95;;;2.20;99.90;;;;;;5092889;28;20036;-38
2023/01/28 00:06:12;;;;;;;12.25;9.85;;;2.30;99.90;;;;;;5084835;28;20036;-38
2023/01/28 00:08:38;;;;;;;14.10;9.77;;;2.20;99.90;;;;;;5093076;28;20484;-38
2023/01/28 00:11:06;;;;;;;12.98;9.90;;;2.20;99.90;;;;;;5078066;28;20039;-38
2023/01/28 00:13:32;;;;;;;13.02;10.20;;;2.20;99.90;;;;;;5100305;28;20731;-38
2023/01/28 00:16:00;;;;;;;12.65;10.35;;;2.20;99.90;;;;;;5093864;28;20036;-36
2023/01/28 00:18:27;;;;;;;13.82;11.20;;;2.20;99.90;;;;;;5095166;28;20036;-36
2023/01/28 00:21:14;;;;;;;16.42;12.55;;;2.20;99.90;;;;;;5094978;28;20114;-36
2023/01/28 00:23:41;;;;;;;14.55;12.48;;;2.20;99.90;;;;;;5094539;28;20075;-36
2023/01/28 00:26:11;;;;;;;16.25;13.32;;;2.30;99.90;;;;;;5094808;28;20045;-36
2023/01/28 00:28:36;;;;;;;15.02;12.02;;;2.20;99.90;;;;;;5094880;28;20526;-36
2023/01/28 00:31:17;;;;;;;14.85;13.23;;;2.20;99.90;;;;;;5094751;28;20067;-36
2023/01/28 00:33:43;;;;;;;15.13;13.52;;;2.20;99.90;;;;;;5094756;28;20118;-36
2023/01/28 00:36:10;;;;;;;13.85;12.45;;;2.20;99.90;;;;;;5089254;28;20107;-36
2023/01/28 00:38:36;;;;;;;13.88;12.25;;;2.20;99.90;;;;;;5084642;28;20035;-36
2023/01/28 00:41:15;;;;;;;14.07;12.57;;;2.20;99.90;;;;;;5094024;28;20039;-36
2023/01/28 00:43:41;;;;;;;14.68;13.18;;;2.20;99.90;;;;;;5095050;28;20492;-36
2023/01/28 00:46:09;;;;;;;14.32;12.82;;;2.10;99.90;;;;;;5094702;28;20031;-36
2023/01/28 00:48:36;;;;;;;14.50;12.77;;;2.20;99.90;;;;;;5077347;28;20091;-36
2023/01/28 00:51:02;;;;;;;14.25;12.73;;;2.10;99.90;;;;;;5094441;28;20479;-36
2023/01/28 00:53:29;;;;;;;14.35;12.85;;;2.20;99.90;;;;;;5094377;28;20488;-36
2023/01/28 00:55:55;;;;;;;13.65;12.25;;;2.10;99.90;;;;;;5094691;28;20066;-36
2023/01/28 00:58:23;;;;;;;14.18;12.77;;;2.10;99.90;;;;;;5094142;28;20488;-36
2023/01/28 01:00:49;;;;;;;13.73;12.32;;;2.10;99.90;;;;;;5094506;28;20488;-36
2023/01/28 01:03:16;;;;;;;14.50;12.93;;;2.10;99.90;;;;;;5090905;28;20535;-36
2023/01/28 01:05:42;;;;;;;13.95;12.32;;;2.10;99.90;;;;;;5073989;28;20036;-36
2023/01/28 01:08:07;;;;;;;13.82;12.32;;;2.10;99.90;;;;;;5075345;28;20042;-36
2023/01/28 01:10:33;;;;;;;12.77;11.43;;;2.10;99.90;;;;;;5094169;28;20127;-36
2023/01/28 01:12:59;;;;;;;13.23;11.32;;;2.00;99.90;;;;;;5092590;28;20093;-37
2023/01/28 01:15:25;;;;;;;16.15;11.60;;;2.00;99.90;;;;;;5074663;28;20048;-37
2023/01/28 01:17:52;;;;;;;13.15;10.98;;;2.00;99.90;;;;;;5074793;28;20338;-36
2023/01/28 01:20:24;;;;;;;12.38;11.07;;;2.00;99.90;;;;;;5074335;28;20036;-36
2023/01/28 01:22:50;;;;;;;13.63;11.70;;;2.00;99.90;;;;;;5084401;28;20036;-36
2023/01/28 01:25:17;;;;;;;12.90;11.50;;;2.00;99.90;;;;;;5094316;28;20135;-36
2023/01/28 01:27:44;;;;;;;12.30;11.00;;;2.00;99.90;;;;;;5111952;28;20048;-36
2023/01/28 01:30:11;;;;;;;13.15;11.20;;;2.00;99.90;;;;;;5078979;28;20051;-36
2023/01/28 01:32:37;;;;;;;13.48;10.88;;;1.90;99.90;;;;;;5073627;28;20076;-36
2023/01/28 01:35:05;;;;;;;12.65;10.90;;;1.90;99.90;;;;;;5073894;28;20102;-36
2023/01/28 01:37:31;;;;;;;12.43;10.90;;;1.90;99.90;;;;;;5093476;28;20075;-36
2023/01/28 01:39:57;;;;;;;14.15;11.68;;;1.90;99.90;;;;;;5093894;28;20040;-36
2023/01/28 01:42:24;;;;;;;12.25;10.77;;;1.90;99.90;;;;;;5088300;28;20492;-37
2023/01/28 01:45:19;;;;;;;12.77;10.85;;;1.90;99.90;;;;;;5087418;22;20046;-36
2023/01/28 01:47:57;;;;;;;12.75;10.43;;;1.90;99.90;;;;;;5065324;28;20044;-36
2023/01/28 01:50:23;;;;;;;13.57;11.45;;;1.90;99.90;;;;;;5069136;28;20059;-36
2023/01/28 01:52:53;;;;;;;13.05;11.23;;;1.90;99.90;;;;;;5071353;28;20032;-36
2023/01/28 01:55:23;;;;;;;14.63;11.38;;;1.90;99.90;;;;;;5076854;28;20086;-37
2023/01/28 01:57:53;;;;;;;14.50;11.68;;;1.90;99.90;;;;;;5077962;28;20040;-37
2023/01/28 02:00:19;;;;;;;15.00;11.48;;;1.90;99.90;;;;;;5097958;28;20088;-37
2023/01/28 02:02:47;;;;;;;14.98;12.50;;;1.90;99.90;;;;;;5094481;22;20032;-37
2023/01/28 02:05:16;;;;;;;14.50;12.07;;;1.90;99.90;;;;;;5057538;28;20036;-37
2023/01/28 02:07:43;;;;;;;16.02;12.07;;;1.90;99.90;;;;;;5056549;28;20033;-37
2023/01/28 02:10:11;;;;;;;15.52;12.55;;;1.90;99.90;;;;;;5072336;28;20036;-37
2023/01/28 02:12:41;;;;;;;18.25;11.98;;;1.90;99.90;;;;;;5062464;28;20040;-37
2023/01/28 02:15:15;;;;;;;16.92;13.15;;;1.90;99.90;;;;;;5085857;22;20130;-37
2023/01/28 02:17:41;;;;;;;15.73;12.15;;;1.90;99.90;;;;;;5090109;22;20037;-38
2023/01/28 02:20:10;;;;;;;16.08;12.88;;;1.90;99.90;;;;;;5053233;28;20032;-36
2023/01/28 02:22:51;;;;;;;15.38;13.05;;;1.90;99.90;;;;;;5027546;28;20089;-36
2023/01/28 02:25:47;;;;;;;15.88;12.60;;;1.90;99.90;;;;;;5040389;28;20044;-36
2023/01/28 02:28:33;;;;;;;15.60;12.70;;;1.90;99.90;;;;;;5051329;28;20086;-35
2023/01/28 02:31:17;;;;;;;15.45;12.80;;;1.90;99.90;;;;;;5048293;28;20284;-35
2023/01/28 02:34:02;;;;;;;15.02;12.55;;;1.90;99.90;;;;;;5038872;28;20115;-36
2023/01/28 02:36:37;;;;;;;16.20;12.85;;;1.90;99.90;;;;;;5043306;28;20075;-35
2023/01/28 02:39:12;;;;;;;14.60;11.57;;;1.90;99.90;;;;;;5055167;28;20039;-36
2023/01/28 02:42:03;;;;;;;16.05;13.00;;;1.80;99.90;;;;;;5051407;28;20033;-35
2023/01/28 02:44:29;;;;;;;16.42;13.20;;;1.90;99.90;;;;;;5052557;28;20190;-36
2023/01/28 02:49:50;;;;;;;;;;;1.80;99.90;;;;;;5072045;28;20044;-36
2023/01/28 02:55:34;;;;;;;13.15;10.32;;;1.80;99.90;;;;;;5073211;28;20047;-35
2023/01/28 02:58:05;;;;;;;12.35;10.77;;;1.80;99.90;;;;;;5050733;28;20045;-35
2023/01/28 03:01:01;;;;;;;11.48;10.27;;;1.80;99.90;;;;;;5053319;28;20106;-35
2023/01/28 03:03:55;;;;;;;11.52;10.18;;;1.80;99.90;;;;;;5046363;28;20041;-35
2023/01/28 03:06:38;;;;;;;12.35;10.95;;;1.80;99.90;;;;;;5031235;28;20493;-35
2023/01/28 03:09:22;;;;;;;11.60;10.40;;;1.80;99.90;;;;;;5054160;28;20033;-36
2023/01/28 03:37:09;;;;;;;11.77;10.35;;;1.70;99.90;;;;;;5082976;28;20472;-37
2023/01/28 03:39:34;;;;;;;12.38;10.10;;;1.70;99.90;;;;;;5073490;28;20036;-37
2023/01/28 03:42:08;;;;;;;13.20;11.35;;;1.70;99.90;;;;;;5098228;28;20036;-37
2023/01/28 03:44:52;;;;;;;12.05;10.30;;;1.70;99.90;;;;;;5078149;28;20092;-37
2023/01/28 03:47:26;;;;;;;12.85;10.30;;;1.70;99.90;;;;;;5076936;28;20035;-37
2023/01/28 03:49:54;;;;;;;14.07;10.15;;;1.70;99.90;;;;;;5067641;28;20039;-37
2023/01/28 03:52:29;;;;;;;12.65;10.13;;;1.70;99.90;;;;;;5073711;28;20067;-36
2023/01/28 03:54:55;;;;;;;12.77;10.18;;;1.70;99.90;;;;;;5077508;28;20067;-37
2023/01/28 03:57:24;;;;;;;11.88;9.55;;;1.70;99.90;;;;;;5073513;28;20036;-37
2023/01/28 03:59:51;;;;;;;12.13;9.75;;;1.70;99.90;;;;;;5075721;28;20036;-37
2023/01/28 04:02:21;;;;;;;11.65;9.40;;;1.70;99.90;;;;;;5084354;28;20545;-37
2023/01/28 04:04:49;;;;;;;11.00;9.45;;;1.70;99.90;;;;;;5077312;28;20032;-38
2023/01/28 04:07:15;;;;;;;13.27;9.27;;;1.70;99.90;;;;;;5085500;28;20074;-38
2023/01/28 04:09:42;;;;;;;13.02;9.77;;;1.70;99.90;;;;;;5072955;28;20035;-37
2023/01/28 04:12:08;;;;;;;12.98;9.38;;;1.70;99.90;;;;;;5082422;28;20123;-37
2023/01/28 04:14:34;;;;;;;11.02;9.13;;;1.70;99.90;;;;;;5081478;28;20391;-37
2023/01/28 04:17:00;;;;;;;12.82;9.98;;;1.70;99.90;;;;;;5078732;28;20554;-38
2023/01/28 04:19:27;;;;;;;13.23;9.82;;;1.70;99.90;;;;;;5080291;28;20040;-37
2023/01/28 04:21:53;;;;;;;13.85;10.68;;;1.70;99.90;;;;;;5080020;28;20459;-37
2023/01/28 04:24:20;;;;;;;12.95;9.60;;;1.70;99.90;;;;;;5081041;28;20046;-37
2023/01/28 04:26:46;;;;;;;14.00;9.85;;;1.70;99.90;;;;;;5073639;28;20036;-37
2023/01/28 04:29:12;;;;;;;12.13;9.75;;;1.70;99.90;;;;;;5082143;28;20120;-37
2023/01/28 04:31:38;;;;;;;12.95;9.45;;;1.60;99.90;;;;;;5082212;28;20084;-37
2023/01/28 04:34:03;;;;;;;12.40;9.98;;;1.70;99.90;;;;;;5080579;28;20047;-37
2023/01/28 04:36:29;;;;;;;11.77;9.48;;;1.60;99.90;;;;;;5079383;28;20500;-37
2023/01/28 04:38:55;;;;;;;12.23;9.65;;;1.60;99.90;;;;;;5070565;28;20142;-37
2023/01/28 04:41:20;;;;;;;12.90;9.93;;;1.60;99.90;;;;;;5080614;28;20036;-37
2023/01/28 04:43:48;;;;;;;13.77;9.75;;;1.60;99.90;;;;;;5071906;28;20502;-37
2023/01/28 04:46:14;;;;;;;14.05;10.25;;;1.60;99.90;;;;;;5081749;28;20114;-37
2023/01/28 04:48:40;;;;;;;13.07;10.13;;;1.70;99.90;;;;;;5061798;28;20501;-37
2023/01/28 04:51:06;;;;;;;12.70;9.55;;;1.60;99.90;;;;;;5054971;28;20115;-37
2023/01/28 04:53:33;;;;;;;12.00;9.48;;;1.60;99.90;;;;;;5069957;28;20062;-38
2023/01/28 04:55:59;;;;;;;13.43;10.57;;;1.70;99.90;;;;;;5070372;28;20046;-37
2023/01/28 04:58:25;;;;;;;15.15;10.73;;;1.70;99.90;;;;;;5093260;28;20035;-38
2023/01/28 05:00:59;;;;;;;14.70;10.55;;;1.70;99.90;;;;;;5097949;22;20150;-37
2023/01/28 05:03:25;;;;;;;14.18;11.13;;;1.70;99.90;;;;;;5080358;28;20519;-37
2023/01/28 05:05:51;;;;;;;15.73;10.32;;;1.70;99.90;;;;;;5079210;28;20040;-37
2023/01/28 05:08:17;;;;;;;13.93;10.02;;;1.70;99.90;;;;;;5069349;28;20113;-37
2023/01/28 05:10:43;;;;;;;15.05;10.40;;;1.70;99.90;;;;;;5064497;28;20504;-37
2023/01/28 05:13:10;;;;;;;13.73;10.32;;;1.70;99.90;;;;;;5071954;28;20111;-37
2023/01/28 05:15:35;;;;;;;16.40;11.35;;;1.60;99.90;;;;;;5072655;28;20039;-37
2023/01/28 05:18:01;;;;;;;14.20;10.07;;;1.60;99.90;;;;;;5075845;28;20063;-37
2023/01/28 05:20:27;;;;;;;14.32;10.23;;;1.60;99.90;;;;;;5065037;28;20032;-37
2023/01/28 05:22:52;;;;;;;14.90;10.70;;;1.60;99.90;;;;;;5075712;28;20441;-37
2023/01/28 05:25:19;;;;;;;12.82;9.77;;;1.60;99.90;;;;;;5051079;28;20047;-37
2023/01/28 05:27:50;;;;;;;14.13;9.80;;;1.60;99.90;;;;;;5063119;23;20044;-38
2023/01/28 05:30:16;;;;;;;13.73;10.50;;;1.60;99.90;;;;;;5076667;28;20048;-39
2023/01/28 05:32:42;;;;;;;15.15;10.63;;;1.60;99.90;;;;;;5076878;28;20077;-39
2023/01/28 05:35:08;;;;;;;14.77;10.30;;;1.60;99.90;;;;;;5077472;28;20423;-39
2023/01/28 05:37:34;;;;;;;14.70;10.13;;;1.60;99.90;;;;;;5093984;28;20121;-39
2023/01/28 05:39:59;;;;;;;13.52;11.02;;;1.60;99.90;;;;;;5070605;28;20032;-39
2023/01/28 05:42:25;;;;;;;15.52;10.85;;;1.60;99.90;;;;;;5075626;28;20259;-40
2023/01/28 05:44:51;;;;;;;17.50;11.82;;;1.60;99.90;;;;;;5064726;28;20075;-39
2023/01/28 05:47:17;;;;;;;17.00;10.70;;;1.60;99.90;;;;;;5062806;28;20111;-39
2023/01/28 05:49:42;;;;;;;15.75;11.40;;;1.60;99.90;;;;;;5084617;28;20166;-39
2023/01/28 05:52:08;;;;;;;15.60;11.55;;;1.60;99.90;;;;;;5091533;28;20571;-40
2023/01/28 05:54:34;;;;;;;16.13;11.38;;;1.60;99.90;;;;;;5076405;28;20035;-41
2023/01/28 05:57:00;;;;;;;16.08;11.52;;;1.60;99.90;;;;;;5070769;28;20036;-39
2023/01/28 05:59:25;;;;;;;15.88;11.68;;;1.60;99.90;;;;;;5076998;28;20051;-38
2023/01/28 06:01:51;;;;;;;15.38;11.23;;;1.60;99.90;;;;;;5099584;22;20044;-37
2023/01/28 06:04:18;;;;;;;16.50;11.48;;;1.60;99.90;;;;;;5102645;28;20043;-36
2023/01/28 06:06:45;;;;;;;18.17;11.80;;;1.60;99.90;;;;;;5097195;28;20039;-36
2023/01/28 06:09:11;;;;;;;13.25;9.68;;;1.60;99.90;;;;;;5097399;28;20043;-36
2023/01/28 06:11:36;;;;;;;15.32;10.38;;;1.60;99.90;;;;;;5097061;28;20404;-36
2023/01/28 06:14:02;;;;;;;16.27;11.10;;;1.60;99.90;;;;;;5097161;28;20293;-36
2023/01/28 06:16:28;;;;;;;14.65;11.00;;;1.60;99.90;;;;;;5093145;28;20028;-39
2023/01/28 06:18:53;;;;;;;14.00;10.13;;;1.60;99.90;;;;;;5085427;28;20025;-40
2023/01/28 06:21:19;;;;;;;13.48;10.48;;;1.60;99.90;;;;;;5111415;28;20050;-40
2023/01/28 06:23:45;;;;;;;14.20;10.77;;;1.60;99.90;;;;;;5089130;28;20107;-41
2023/01/28 06:26:11;;;;;;;14.23;10.68;;;1.60;99.90;;;;;;5096331;28;20024;-39
2023/01/28 06:28:36;;;;;;;14.23;10.05;;;1.60;99.90;;;;;;5091717;28;20119;-39
2023/01/28 06:31:02;;;;;;;16.00;10.43;;;1.60;99.90;;;;;;5095262;28;20050;-41
2023/01/28 06:33:28;;;;;;;12.90;10.13;;;1.60;99.90;;;;;;5089472;28;20066;-39
2023/01/28 06:35:54;;;;;;;15.02;10.50;;;1.60;99.90;;;;;;5093845;28;20038;-39
2023/01/28 06:38:20;;;;;;;15.20;11.40;;;1.60;99.90;;;;;;5094483;28;20046;-40
2023/01/28 06:40:51;;;;;;;13.32;9.75;;;1.50;99.90;;;;;;5092454;28;20038;-40
2023/01/28 06:43:17;;;;;;;14.88;10.32;;;1.60;99.90;;;;;;5087940;28;20500;-39
2023/01/28 06:45:42;;;;;;;14.13;9.93;;;1.50;99.90;;;;;;5096415;28;20070;-39
2023/01/28 06:48:08;;;;;;;14.40;10.00;;;1.60;99.90;;;;;;5089994;28;20476;-40
2023/01/28 06:50:34;;;;;;;14.32;10.48;;;1.50;99.90;;;;;;5094638;28;20036;-39
2023/01/28 06:52:59;;;;;;;14.02;10.07;;;1.50;99.90;;;;;;5091668;28;20032;-39
2023/01/28 06:55:25;;;;;;;13.70;9.80;;;1.50;99.90;;;;;;5095473;28;20382;-39
2023/01/28 06:57:51;;;;;;;11.30;8.52;;;1.50;99.90;;;;;;5096017;28;20051;-39
2023/01/28 07:00:17;;;;;;;13.30;9.23;;;1.50;99.90;;;;;;5075771;28;20036;-39
2023/01/28 07:02:43;;;;;;;12.05;9.25;;;1.50;99.90;;;;;;5093737;28;20034;-39
2023/01/28 07:05:09;;;;;;;13.43;9.73;;;1.50;99.90;;;;;;5113772;28;20035;-39
2023/01/28 07:07:35;;;;;;;11.05;8.57;;;1.50;99.90;;;;;;5095663;28;20400;-39
2023/01/28 07:10:01;;;;;;;11.77;9.95;;;1.50;99.90;;;;;;5090191;28;20043;-40
2023/01/28 07:12:27;;;;;;;13.05;9.23;;;1.50;99.90;;;;;;5095400;28;20046;-39
2023/01/28 07:14:53;;;;;;;13.68;8.65;;;1.50;99.90;;;;;;5089160;28;20028;-40
2023/01/28 07:17:19;;;;;;;11.95;9.35;;;1.50;99.90;;;;;;5088040;28;20039;-39
2023/01/28 07:19:44;;;;;;;13.35;9.60;;;1.50;99.90;;;;;;5094883;28;20085;-39
2023/01/28 07:22:10;;;;;;;12.68;9.32;;;1.50;99.90;;;;;;5087015;28;20085;-37
2023/01/28 07:24:36;;;;;;;11.98;8.85;;;1.50;99.90;;;;;;5076600;28;20040;-37
2023/01/28 07:27:03;;;;;;;12.88;9.07;;;1.50;99.90;;;;;;5077895;28;20055;-37
2023/01/28 07:29:29;;;;;;;14.25;10.15;;;1.50;99.90;;;;;;5088373;28;20444;-38
2023/01/28 07:31:55;;;;;;;13.63;9.60;;;1.40;99.90;;;;;;5092389;28;20071;-38
2023/01/28 07:34:20;;;;;;;11.57;9.27;;;1.40;99.90;;;;;;5095735;28;20078;-37
2023/01/28 07:36:46;;;;;;;11.80;8.75;;;1.50;99.90;;;;;;5093875;28;20396;-37
2023/01/28 07:39:12;;;;;;;12.57;9.68;;;1.50;99.90;;;;;;5085530;28;20039;-37
2023/01/28 07:41:38;;;;;;;12.73;9.30;;;1.50;99.90;;;;;;5094408;28;20396;-37
2023/01/28 07:44:04;;;;;;;11.57;8.85;;;1.50;99.90;;;;;;5105386;28;20036;-37
2023/01/28 07:46:29;;;;;;;14.05;9.30;;;1.50;99.90;;;;;;5072865;28;20405;-37
2023/01/28 07:48:55;;;;;;;12.23;9.05;;;1.50;99.90;;;;;;5112938;28;20384;-37
2023/01/28 07:51:21;;;;;;;13.25;9.63;;;1.50;99.90;;;;;;5094171;28;20035;-37
2023/01/28 07:53:47;;;;;;;11.27;8.95;;;1.50;99.90;;;;;;5084160;28;20491;-37
2023/01/28 07:56:12;;;;;;;12.82;9.52;;;1.50;99.90;;;;;;5112155;28;20126;-38
2023/01/28 07:58:38;;;;;;;12.15;9.57;;;1.60;99.90;;;;;;5090731;28;20467;-37
2023/01/28 08:01:04;;;;;;;12.95;9.45;;;1.60;99.90;;;;;;5094642;28;20067;-37
2023/01/28 08:03:36;;;;;;;13.05;9.90;;;1.60;99.90;;;;;;5094639;28;20460;-38
2023/01/28 08:06:05;;;;;;;15.35;11.73;;;1.60;99.90;;;;;;5089634;28;20122;-37
2023/01/28 08:08:32;;;;;;;14.90;10.95;;;1.60;99.90;;;;;;5094359;28;20071;-37
2023/01/28 08:11:14;;;;;;;17.00;11.95;;;1.60;99.90;;;;;;5089820;28;20398;-37
2023/01/28 08:13:40;;;;;;;13.55;10.27;;;1.50;99.90;;;;;;5085671;28;20039;-37
2023/01/28 08:16:30;;;;;;;14.50;10.50;;;1.50;99.90;;;;;;5088649;28;20396;-37
2023/01/28 08:19:47;;;;;;;13.15;10.20;;;1.50;99.90;;;;;;5091441;28;20047;-38
2023/01/28 08:22:37;;;;;;;;;;;1.50;99.90;;;;;;5009527;28;20108;-37
2023/01/28 08:25:12;;;;;;;16.85;12.55;;;1.50;99.90;;;;;;4993253;28;20374;-37
2023/01/28 08:27:51;;;;;;;21.48;16.40;;;1.50;99.90;;;;;;5106953;22;20059;-37
2023/01/28 08:30:17;;;;;;;17.85;13.02;;;1.50;99.90;;;;;;5109959;28;20122;-37
2023/01/28 08:32:43;;;;;;;16.45;12.20;;;1.50;99.90;;;;;;5089981;28;20560;-37
2023/01/28 08:35:08;;;;;;;17.10;11.75;;;1.60;99.90;;;;;;5085037;28;20384;-37
2023/01/28 08:37:47;;;;;;;19.60;14.32;;;1.60;99.90;;;;;;5090644;28;20036;-37
2023/01/28 08:40:12;;;;;;;21.52;16.67;;;1.60;99.90;;;;;;5089333;28;20057;-36
2023/01/28 08:42:40;;;;;;;20.30;14.82;;;1.80;99.90;;;;;;5080619;28;20036;-37
2023/01/28 08:45:06;;;;;;;16.48;13.07;;;2.20;99.90;;;;;;5095155;28;20039;-37
2023/01/28 08:47:32;;;;;;;16.30;12.63;;;2.80;99.90;;;;;;5094490;28;20071;-37
2023/01/28 08:49:58;;;;;;;14.65;11.75;;;3.40;99.90;;;;;;5094137;28;20071;-37
2023/01/28 08:52:24;;;;;;;13.38;11.32;;;3.90;99.90;;;;;;5093982;28;20035;-37
2023/01/28 08:54:51;;;;;;;16.48;12.45;;;4.50;99.90;;;;;;5087304;28;20027;-35
2023/01/28 08:57:16;;;;;;;11.70;10.23;;;4.90;99.90;;;;;;5077116;28;20085;-35
2023/01/28 08:59:45;;;;;;;14.18;11.07;;;5.30;99.90;;;;;;5093784;28;20039;-35
2023/01/28 09:02:14;;;;;;;13.02;11.20;;;5.60;99.90;;;;;;5084182;28;20491;-35
2023/01/28 09:04:41;;;;;;;13.48;11.40;;;5.70;99.90;;;;;;5093914;28;20040;-35
2023/01/28 09:07:06;;;;;;;13.82;11.65;;;6.00;99.90;;;;;;5094111;28;20488;-36
2023/01/28 09:09:32;;;;;;;12.23;10.93;;;6.10;99.90;;;;;;5109344;28;20039;-36
2023/01/28 09:11:58;;;;;;;11.80;10.43;;;6.10;99.90;;;;;;5091454;22;20040;-37
2023/01/28 09:14:24;;;;;;;12.90;11.07;;;5.70;99.90;;;;;;5062623;28;20458;-37
2023/01/28 09:16:49;;;;;;;11.88;10.40;;;5.10;99.90;;;;;;5065265;28;20059;-36
2023/01/28 09:19:15;;;;;;;11.38;10.18;;;4.60;99.90;;;;;;5054410;28;20382;-36
2023/01/28 09:21:41;;;;;;;13.60;9.98;;;4.20;99.90;;;;;;5053046;28;20029;-36
2023/01/28 09:24:10;;;;;;;12.45;10.25;;;3.90;99.90;;;;;;5052896;28;20083;-36
2023/01/28 09:26:36;;;;;;;12.02;9.70;;;3.80;99.90;;;;;;5051873;28;20043;-37
2023/01/28 09:29:03;;;;;;;12.57;9.57;;;3.80;99.90;;;;;;5037142;28;20044;-36
2023/01/28 09:31:29;;;;;;;10.63;8.98;;;4.10;99.90;;;;;;5054279;28;20041;-36
2023/01/28 09:33:56;;;;;;;11.18;9.00;;;4.60;99.90;;;;;;5054996;28;20400;-36
2023/01/28 09:36:22;;;;;;;11.00;9.10;;;4.80;99.90;;;;;;5055813;28;20029;-36
2023/01/28 09:38:48;;;;;;;12.73;9.90;;;4.80;99.90;;;;;;5039719;28;20047;-36
2023/01/28 09:41:27;;;;;;;11.48;10.00;;;5.10;99.90;;;;;;5053904;28;20066;-37
2023/01/28 09:44:05;;;;;;;10.93;9.20;;;5.80;99.90;;;;;;5069911;28;20094;-37
2023/01/28 09:46:34;;;;;;;11.13;8.50;;;6.60;99.90;;;;;;5052206;28;20540;-37
2023/01/28 09:49:08;;;;;;;9.73;8.23;;;6.80;99.90;;;;;;5053105;28;20028;-37
2023/01/28 09:51:43;;;;;;;11.07;9.32;;;6.50;99.90;;;;;;5052044;28;20082;-37
2023/01/28 09:54:28;;;;;;;11.00;9.00;;;6.10;99.90;;;;;;5036720;28;20044;-37
2023/01/28 09:57:05;;;;;;;13.13;8.88;;;5.60;99.90;;;;;;5053985;28;20040;-36
2023/01/28 09:59:34;;;;;;;9.82;8.68;;;5.20;99.90;;;;;;5050514;28;20045;-38
2023/01/28 10:02:18;;;;;;;12.13;9.50;;;4.90;99.90;;;;;;5061862;28;20053;-38
2023/01/28 10:04:47;;;;;;;;;;;4.70;99.90;;;;;;5071816;28;20046;-39
2023/01/28 10:07:55;;;;;;;10.88;8.77;;;4.50;99.90;;;;;;5047173;28;19931;-41
2023/01/28 10:10:54;;;;;;;12.07;9.02;;;4.50;99.90;;;;;;5023745;28;20044;-39
2023/01/28 10:13:42;;;;;;;11.38;9.43;;;4.60;99.90;;;;;;5045059;28;20049;-39
2023/01/28 10:16:13;;;;;;;9.68;8.60;;;4.70;99.90;;;;;;5041623;28;20044;-42
2023/01/28 10:18:51;;;;;;;11.77;9.85;;;4.90;99.90;;;;;;5049700;28;20029;-38
2023/01/28 10:21:35;;;;;;;13.38;9.93;;;5.40;99.90;;;;;;5037865;28;20055;-41
2023/01/28 10:24:04;;;;;;;11.02;9.48;;;6.80;99.90;;;;;;5042030;28;20280;-39
2023/01/28 10:26:37;;;;;;;11.82;8.95;;;8.00;99.90;;;;;;5072216;28;20040;-36
2023/01/28 10:29:25;;;;;;;12.05;9.40;;;8.80;99.90;;;;;;5049777;28;20041;-37
2023/01/28 10:32:03;;;;;;;9.45;8.48;;;9.20;99.90;;;;;;5056086;28;20119;-36
2023/01/28 10:34:29;;;;;;;10.93;8.75;;;9.60;99.90;;;;;;5056173;28;20041;-36
2023/01/28 10:36:57;;;;;;;10.68;9.23;;;10.10;99.90;;;;;;5056106;28;20041;-37
2023/01/28 10:39:25;;;;;;;9.32;8.43;;;10.40;99.90;;;;;;5056012;28;20105;-38
2023/01/28 10:41:51;;;;;;;9.75;8.70;;;10.90;99.90;;;;;;5056130;28;20116;-38
2023/01/28 10:44:29;;;;;;;9.82;8.25;;;11.30;99.90;;;;;;5055939;28;20048;-38
2023/01/28 10:46:58;;;;;;;10.68;8.90;;;11.80;99.90;;;;;;5056118;28;20075;-38
2023/01/28 10:49:28;;;;;;;9.60;8.60;;;12.00;99.90;;;;;;5038830;28;20036;-37
2023/01/28 10:51:54;;;;;;;9.85;8.75;;;11.60;99.90;;;;;;5055510;28;20047;-38
2023/01/28 10:54:25;;;;;;;10.77;8.25;;;11.60;99.90;;;;;;5055544;28;20041;-38
2023/01/28 10:56:55;;;;;;;8.40;7.50;;;11.50;99.90;;;;;;5055836;28;20045;-38
2023/01/28 10:59:40;;;;;;;10.98;7.97;;;11.00;99.90;;;;;;5055538;28;20150;-38
2023/01/28 11:02:31;;;;;;;9.93;8.57;;;10.40;75.00;;;;;;5055386;28;20120;-38
2023/01/28 11:05:15;;;;;;;8.95;8.05;;;9.90;99.90;;;;;;5061091;28;20079;-38
2023/01/28 11:07:41;;;;;;;9.10;8.20;;;10.10;99.90;;;;;;5058125;28;20039;-38
2023/01/28 11:10:34;;;;;;;8.98;8.07;;;10.80;99.90;;;;;;5075376;28;20036;-38
2023/01/28 11:13:05;;;;;;;9.60;8.60;;;11.80;89.80;;;;;;5057385;28;20497;-39
2023/01/28 11:15:31;;;;;;;10.30;9.10;;;12.30;91.70;;;;;;5054191;28;20040;-38
2023/01/28 11:18:06;;;;;;;10.13;8.80;;;12.70;99.90;;;;;;5054184;28;20048;-39
2023/01/28 11:20:50;;;;;;;8.75;7.88;;;12.70;75.10;;;;;;5054441;28;20036;-39
2023/01/28 11:23:28;;;;;;;9.88;8.60;;;13.20;67.30;;;;;;5055028;28;20028;-39
2023/01/28 11:26:23;;;;;;;7.93;7.22;;;13.10;87.10;;;;;;5072180;22;20056;-40
2023/01/28 11:28:51;;;;;;;7.85;7.05;;;13.20;70.50;;;;;;5071085;28;20460;-39
2023/01/28 11:31:19;;;;;;;8.23;7.43;;;12.70;80.60;;;;;;5094607;27;20036;-39
2023/01/28 11:34:00;;;;;;;8.77;7.90;;;12.30;81.50;;;;;;5107867;28;20039;-39
2023/01/28 11:36:31;;;;;;;8.25;7.45;;;12.20;91.60;;;;;;5096285;28;20031;-39
2023/01/28 11:39:06;;;;;;;8.45;7.65;;;12.40;86.50;;;;;;5105610;27;20468;-39
2023/01/28 11:41:34;;;;;;;7.85;7.05;;;12.60;78.70;;;;;;5111960;27;20077;-39
2023/01/28 11:44:15;;;;;;;8.27;7.47;;;12.00;78.70;;;;;;5101314;27;20044;-39
2023/01/28 11:46:44;;;;;;;8.15;7.03;;;11.40;77.10;;;;;;5098916;27;20035;-39
2023/01/28 11:49:27;;;;;;;9.05;7.70;;;10.90;92.70;;;;;;5106294;27;20498;-39
2023/01/28 11:52:15;;;;;;;9.48;8.45;;;11.00;99.90;;;;;;5101601;28;20058;-39
2023/01/28 11:55:00;;;;;;;9.93;8.02;;;11.60;65.80;;;;;;5103742;28;20047;-39
2023/01/28 11:57:50;;;;;;;7.40;6.70;;;12.50;84.60;;;;;;5120724;27;20118;-41
2023/01/28 12:00:24;;;;;;;8.85;7.95;;;12.90;69.30;;;;;;5092685;28;20058;-38
2023/01/28 12:03:02;;;;;;;8.55;7.75;;;13.10;90.30;;;;;;5105081;28;20518;-38
2023/01/28 12:05:38;;;;;;;7.80;7.07;;;13.30;75.60;;;;;;5108977;27;20138;-40
2023/01/28 12:08:22;;;;;;;8.05;7.20;;;12.90;73.30;;;;;;5099552;28;20043;-38
2023/01/28 12:12:10;;;;;;;8.57;7.78;;;13.30;67.40;;;;;;5081578;28;20040;-38
2023/01/28 12:14:32;;;;;;;6.93;6.32;;;14.10;68.30;;;;;;5117266;27;20100;-37
2023/01/28 12:17:09;;;;;;;6.78;5.90;;;13.50;65.70;;;;;;5085088;27;20537;-37
2023/01/28 12:19:49;;;;;;;7.30;6.60;;;12.30;69.00;;;;;;5109668;27;20095;-36
2023/01/28 12:22:27;;;;;;;7.97;7.20;;;11.10;87.40;;;;;;5098765;27;20498;-38
2023/01/28 12:25:20;;;;;;;9.20;7.80;;;10.60;90.40;;;;;;5080794;27;20508;-38
2023/01/28 12:28:29;;;;;;;8.45;7.43;;;9.90;83.20;;;;;;5116224;27;20035;-38
2023/01/28 12:31:32;;;;;;;7.18;6.47;;;9.40;95.10;;;;;;5093249;27;20119;-38
2023/01/28 12:34:30;;;;;;;7.70;6.80;;;8.80;99.90;;;;;;5102488;28;20036;-38
2023/01/28 12:37:27;;;;;;;8.13;7.03;;;8.50;99.90;;;;;;5093370;28;20043;-38
2023/01/28 12:40:20;;;;;;;8.30;7.03;;;8.20;99.90;;;;;;5098520;27;20064;-38
2023/01/28 12:43:13;;;;;;;11.32;8.80;;;7.80;99.90;;;;;;5091648;27;20068;-38
2023/01/28 12:45:45;;;;;;;20.53;18.53;;;7.50;99.90;;;;;;5108858;27;20489;-38
2023/01/28 12:48:43;;;;;;;10.85;7.97;;;7.40;99.90;;;;;;5101283;28;20655;-38
2023/01/28 12:51:22;;;;;;;9.98;8.48;;;7.30;99.90;;;;;;5098134;27;20452;-37
2023/01/28 12:54:20;;;;;;;8.90;7.82;;;7.30;99.90;;;;;;5084685;28;20062;-40
2023/01/28 12:56:54;;;;;;;7.80;6.85;;;7.30;99.90;;;;;;5109227;28;20043;-38
2023/01/28 12:59:46;;;;;;;9.52;7.70;;;7.20;99.90;;;;;;5104779;28;20483;-38
2023/01/28 13:02:12;;;;;;;11.15;9.10;;;7.20;99.90;;;;;;5115789;27;20039;-38
2023/01/28 13:05:09;;;;;;;9.57;8.63;;;7.10;99.90;;;;;;5098331;28;20039;-38
2023/01/28 13:08:04;;;;;;;14.95;12.75;;;7.10;99.90;;;;;;5078105;28;20043;-38
2023/01/28 13:14:15;;;;;;;7.70;6.28;;;6.90;99.90;;;;;;5090526;28;20439;-37
2023/01/28 13:17:24;;;;;;;7.95;5.90;;;7.50;99.90;;;;;;5073142;28;20040;-37
2023/01/28 13:19:51;;;;;;;10.15;7.55;;;8.70;99.90;;;;;;5060828;28;20048;-37
2023/01/28 13:22:34;;;;;;;9.57;8.02;;;9.90;99.90;;;;;;5094038;28;20122;-38
2023/01/28 13:25:33;;;;;;;7.70;6.88;;;11.10;99.90;;;;;;5104163;28;20066;-37
2023/01/28 13:28:02;;;;;;;7.25;6.53;;;12.30;98.70;;;;;;5060185;28;20054;-37
2023/01/28 13:30:31;;;;;;;7.72;6.93;;;13.10;91.00;;;;;;5109183;28;20035;-37
2023/01/28 13:33:26;;;;;;;8.73;6.85;;;13.50;87.00;;;;;;5099324;28;20109;-38
2023/01/28 13:35:54;;;;;;;9.68;7.82;;;13.80;61.40;;;;;;5086203;28;20429;-38
2023/01/28 13:38:20;;;;;;;8.32;7.53;;;14.40;68.80;;;;;;5094131;28;20067;-38
2023/01/28 13:41:13;;;;;;;8.38;7.57;;;14.70;65.50;;;;;;5088704;28;20275;-38
2023/01/28 13:43:41;;;;;;;8.02;7.22;;;14.70;59.80;;;;;;5074321;28;20040;-38